sensor_id;sensor_type;location;lat;lon;timestamp;P1;durP1;ratioP1;P2;durP2;ratioP2
41667;SDS011;27356;50.920;5.350;2023-08-06T00:00:20;4.63;;;0.82;;
41667;SDS011;27356;50.920;5.350;2023-08-06T00:02:47;5.82;;;0.90;;
41667;SDS011;27356;50.920;5.350;2023-08-06T00:05:13;4.70;;;0.80;;
41667;SDS011;27356;50.920;5.350;2023-08-06T00:07:38;4.57;;;1.00;;
41667;SDS011;27356;50.920;5.350;2023-08-06T00:10:04;2.97;;;0.80;;
41667;SDS011;27356;50.920;5.350;2023-08-06T00:12:30;5.57;;;0.82;;
41667;SDS011;27356;50.920;5.350;2023-08-06T00:14:56;6.38;;;0.95;;
41667;SDS011;27356;50.920;5.350;2023-08-06T00:17:21;1.00;;;0.57;;
41667;SDS011;27356;50.920;5.350;2023-08-06T00:19:47;7.43;;;1.33;;
41667;SDS011;27356;50.920;5.350;2023-08-06T00:22:13;2.03;;;0.70;;
41667;SDS011;27356;50.920;5.350;2023-08-06T00:24:38;3.88;;;0.60;;
41667;SDS011;27356;50.920;5.350;2023-08-06T00:27:04;4.55;;;0.82;;
41667;SDS011;27356;50.920;5.350;2023-08-06T00:29:30;3.15;;;1.05;;
41667;SDS011;27356;50.920;5.350;2023-08-06T00:31:55;1.52;;;0.70;;
41667;SDS011;27356;50.920;5.350;2023-08-06T00:34:21;1.42;;;0.40;;
41667;SDS011;27356;50.920;5.350;2023-08-06T00:36:47;3.35;;;0.70;;
41667;SDS011;27356;50.920;5.350;2023-08-06T00:39:12;2.47;;;0.85;;
41667;SDS011;27356;50.920;5.350;2023-08-06T00:41:38;1.25;;;0.60;;
41667;SDS011;27356;50.920;5.350;2023-08-06T00:44:04;2.08;;;0.70;;
41667;SDS011;27356;50.920;5.350;2023-08-06T00:46:30;3.60;;;0.63;;
41667;SDS011;27356;50.920;5.350;2023-08-06T00:48:57;3.53;;;0.80;;
41667;SDS011;27356;50.920;5.350;2023-08-06T00:51:23;1.98;;;0.55;;
41667;SDS011;27356;50.920;5.350;2023-08-06T00:53:50;3.42;;;0.60;;
41667;SDS011;27356;50.920;5.350;2023-08-06T00:56:16;1.55;;;0.70;;
41667;SDS011;27356;50.920;5.350;2023-08-06T00:58:42;1.42;;;0.70;;
41667;SDS011;27356;50.920;5.350;2023-08-06T01:01:07;1.15;;;0.70;;
41667;SDS011;27356;50.920;5.350;2023-08-06T01:03:33;1.15;;;0.40;;
41667;SDS011;27356;50.920;5.350;2023-08-06T01:05:59;3.17;;;0.60;;
41667;SDS011;27356;50.920;5.350;2023-08-06T01:11:25;1.33;;;0.45;;
41667;SDS011;27356;50.920;5.350;2023-08-06T01:13:58;1.75;;;0.70;;
41667;SDS011;27356;50.920;5.350;2023-08-06T01:16:33;1.73;;;1.15;;
41667;SDS011;27356;50.920;5.350;2023-08-06T01:19:00;6.07;;;0.60;;
41667;SDS011;27356;50.920;5.350;2023-08-06T01:21:25;3.13;;;0.90;;
41667;SDS011;27356;50.920;5.350;2023-08-06T01:23:51;3.65;;;0.60;;
41667;SDS011;27356;50.920;5.350;2023-08-06T01:31:26;3.75;;;0.75;;
41667;SDS011;27356;50.920;5.350;2023-08-06T01:33:56;4.10;;;0.80;;
41667;SDS011;27356;50.920;5.350;2023-08-06T01:36:26;3.65;;;0.60;;
41667;SDS011;27356;50.920;5.350;2023-08-06T01:38:53;2.90;;;0.80;;
41667;SDS011;27356;50.920;5.350;2023-08-06T01:41:19;1.83;;;0.60;;
41667;SDS011;27356;50.920;5.350;2023-08-06T01:43:45;2.65;;;0.70;;
41667;SDS011;27356;50.920;5.350;2023-08-06T01:46:10;2.15;;;0.60;;
41667;SDS011;27356;50.920;5.350;2023-08-06T01:48:36;0.85;;;0.70;;
41667;SDS011;27356;50.920;5.350;2023-08-06T01:51:05;1.80;;;0.70;;
41667;SDS011;27356;50.920;5.350;2023-08-06T01:53:31;3.75;;;0.47;;
41667;SDS011;27356;50.920;5.350;2023-08-06T01:55:57;2.92;;;0.70;;
41667;SDS011;27356;50.920;5.350;2023-08-06T01:58:23;3.03;;;1.15;;
41667;SDS011;27356;50.920;5.350;2023-08-06T02:00:48;0.75;;;0.45;;
41667;SDS011;27356;50.920;5.350;2023-08-06T02:03:14;1.10;;;0.60;;
41667;SDS011;27356;50.920;5.350;2023-08-06T02:05:40;2.70;;;0.95;;
41667;SDS011;27356;50.920;5.350;2023-08-06T02:08:06;0.52;;;0.30;;
41667;SDS011;27356;50.920;5.350;2023-08-06T02:10:32;2.97;;;0.70;;
41667;SDS011;27356;50.920;5.350;2023-08-06T02:12:58;1.20;;;0.47;;
41667;SDS011;27356;50.920;5.350;2023-08-06T02:15:23;2.70;;;0.40;;
41667;SDS011;27356;50.920;5.350;2023-08-06T02:17:49;1.35;;;0.55;;
41667;SDS011;27356;50.920;5.350;2023-08-06T02:20:15;0.75;;;0.60;;
41667;SDS011;27356;50.920;5.350;2023-08-06T02:22:40;2.45;;;0.45;;
41667;SDS011;27356;50.920;5.350;2023-08-06T02:25:06;1.23;;;0.50;;
41667;SDS011;27356;50.920;5.350;2023-08-06T02:27:32;2.13;;;0.38;;
41667;SDS011;27356;50.920;5.350;2023-08-06T02:29:58;1.92;;;0.40;;
41667;SDS011;27356;50.920;5.350;2023-08-06T02:32:23;1.85;;;0.40;;
41667;SDS011;27356;50.920;5.350;2023-08-06T02:34:49;1.42;;;0.50;;
41667;SDS011;27356;50.920;5.350;2023-08-06T02:37:15;2.55;;;0.47;;
41667;SDS011;27356;50.920;5.350;2023-08-06T02:39:40;3.35;;;0.40;;
41667;SDS011;27356;50.920;5.350;2023-08-06T02:42:06;2.58;;;0.52;;
41667;SDS011;27356;50.920;5.350;2023-08-06T02:44:32;2.70;;;0.50;;
41667;SDS011;27356;50.920;5.350;2023-08-06T02:46:59;1.17;;;0.30;;
41667;SDS011;27356;50.920;5.350;2023-08-06T02:49:24;0.45;;;0.30;;
41667;SDS011;27356;50.920;5.350;2023-08-06T02:51:50;1.33;;;0.40;;
41667;SDS011;27356;50.920;5.350;2023-08-06T02:54:16;1.52;;;0.63;;
41667;SDS011;27356;50.920;5.350;2023-08-06T02:56:45;1.73;;;0.55;;
41667;SDS011;27356;50.920;5.350;2023-08-06T02:59:14;1.77;;;0.40;;
41667;SDS011;27356;50.920;5.350;2023-08-06T03:01:39;0.80;;;0.43;;
41667;SDS011;27356;50.920;5.350;2023-08-06T03:04:05;2.35;;;0.60;;
41667;SDS011;27356;50.920;5.350;2023-08-06T03:06:31;4.53;;;0.68;;
41667;SDS011;27356;50.920;5.350;2023-08-06T03:08:57;0.90;;;0.63;;
41667;SDS011;27356;50.920;5.350;2023-08-06T03:11:22;1.55;;;0.63;;
41667;SDS011;27356;50.920;5.350;2023-08-06T03:13:48;1.40;;;0.60;;
41667;SDS011;27356;50.920;5.350;2023-08-06T03:16:14;2.72;;;0.73;;
41667;SDS011;27356;50.920;5.350;2023-08-06T03:18:39;0.82;;;0.52;;
41667;SDS011;27356;50.920;5.350;2023-08-06T03:21:05;1.85;;;1.10;;
41667;SDS011;27356;50.920;5.350;2023-08-06T03:23:31;1.02;;;0.80;;
41667;SDS011;27356;50.920;5.350;2023-08-06T03:26:03;4.00;;;0.77;;
41667;SDS011;27356;50.920;5.350;2023-08-06T03:30:58;7.50;;;1.35;;
41667;SDS011;27356;50.920;5.350;2023-08-06T03:33:25;5.63;;;1.30;;
41667;SDS011;27356;50.920;5.350;2023-08-06T03:35:51;3.45;;;1.48;;
41667;SDS011;27356;50.920;5.350;2023-08-06T03:38:16;3.05;;;1.80;;
41667;SDS011;27356;50.920;5.350;2023-08-06T03:40:42;4.82;;;1.65;;
41667;SDS011;27356;50.920;5.350;2023-08-06T03:43:08;2.15;;;1.95;;
41667;SDS011;27356;50.920;5.350;2023-08-06T03:45:34;2.47;;;2.13;;
41667;SDS011;27356;50.920;5.350;2023-08-06T03:47:59;4.22;;;1.98;;
41667;SDS011;27356;50.920;5.350;2023-08-06T03:50:25;3.85;;;1.77;;
41667;SDS011;27356;50.920;5.350;2023-08-06T03:52:50;4.45;;;1.90;;
41667;SDS011;27356;50.920;5.350;2023-08-06T03:55:16;3.97;;;2.53;;
41667;SDS011;27356;50.920;5.350;2023-08-06T03:57:42;4.60;;;1.90;;
41667;SDS011;27356;50.920;5.350;2023-08-06T04:00:08;4.30;;;2.00;;
41667;SDS011;27356;50.920;5.350;2023-08-06T04:02:34;2.83;;;2.38;;
41667;SDS011;27356;50.920;5.350;2023-08-06T04:05:00;4.00;;;2.50;;
41667;SDS011;27356;50.920;5.350;2023-08-06T04:07:26;2.78;;;2.30;;
41667;SDS011;27356;50.920;5.350;2023-08-06T04:10:01;3.55;;;3.00;;
41667;SDS011;27356;50.920;5.350;2023-08-06T04:12:28;6.32;;;3.28;;
41667;SDS011;27356;50.920;5.350;2023-08-06T04:14:54;6.03;;;2.80;;
41667;SDS011;27356;50.920;5.350;2023-08-06T04:17:23;2.83;;;2.60;;
41667;SDS011;27356;50.920;5.350;2023-08-06T04:19:50;3.15;;;2.85;;
41667;SDS011;27356;50.920;5.350;2023-08-06T04:22:16;3.65;;;3.00;;
41667;SDS011;27356;50.920;5.350;2023-08-06T04:24:42;3.47;;;2.58;;
41667;SDS011;27356;50.920;5.350;2023-08-06T04:27:09;6.20;;;2.92;;
41667;SDS011;27356;50.920;5.350;2023-08-06T04:29:35;5.97;;;3.40;;
41667;SDS011;27356;50.920;5.350;2023-08-06T04:32:01;5.70;;;3.15;;
41667;SDS011;27356;50.920;5.350;2023-08-06T04:34:28;7.43;;;3.08;;
41667;SDS011;27356;50.920;5.350;2023-08-06T04:36:54;5.25;;;3.65;;
41667;SDS011;27356;50.920;5.350;2023-08-06T04:39:19;5.55;;;3.92;;
41667;SDS011;27356;50.920;5.350;2023-08-06T04:41:45;5.43;;;3.40;;
41667;SDS011;27356;50.920;5.350;2023-08-06T04:44:10;5.53;;;3.92;;
41667;SDS011;27356;50.920;5.350;2023-08-06T04:46:36;7.32;;;3.42;;
41667;SDS011;27356;50.920;5.350;2023-08-06T04:49:02;7.18;;;3.78;;
41667;SDS011;27356;50.920;5.350;2023-08-06T04:51:27;5.20;;;4.20;;
41667;SDS011;27356;50.920;5.350;2023-08-06T04:53:53;6.07;;;3.95;;
41667;SDS011;27356;50.920;5.350;2023-08-06T04:56:19;6.95;;;4.22;;
41667;SDS011;27356;50.920;5.350;2023-08-06T04:58:44;8.20;;;3.83;;
41667;SDS011;27356;50.920;5.350;2023-08-06T05:01:10;10.23;;;4.20;;
41667;SDS011;27356;50.920;5.350;2023-08-06T05:03:36;6.00;;;4.43;;
41667;SDS011;27356;50.920;5.350;2023-08-06T05:06:01;7.25;;;4.00;;
41667;SDS011;27356;50.920;5.350;2023-08-06T05:08:27;5.43;;;3.58;;
41667;SDS011;27356;50.920;5.350;2023-08-06T05:10:53;5.32;;;3.10;;
41667;SDS011;27356;50.920;5.350;2023-08-06T05:13:18;3.83;;;3.50;;
41667;SDS011;27356;50.920;5.350;2023-08-06T05:15:44;13.30;;;4.10;;
41667;SDS011;27356;50.920;5.350;2023-08-06T05:18:11;6.10;;;3.10;;
41667;SDS011;27356;50.920;5.350;2023-08-06T05:20:37;5.18;;;2.88;;
41667;SDS011;27356;50.920;5.350;2023-08-06T05:23:04;6.13;;;2.80;;
41667;SDS011;27356;50.920;5.350;2023-08-06T05:25:30;3.03;;;2.83;;
41667;SDS011;27356;50.920;5.350;2023-08-06T05:27:56;6.60;;;3.05;;
41667;SDS011;27356;50.920;5.350;2023-08-06T05:30:22;7.03;;;3.25;;
41667;SDS011;27356;50.920;5.350;2023-08-06T05:32:48;3.15;;;2.50;;
41667;SDS011;27356;50.920;5.350;2023-08-06T05:35:14;3.58;;;2.90;;
41667;SDS011;27356;50.920;5.350;2023-08-06T05:37:40;3.60;;;2.83;;
41667;SDS011;27356;50.920;5.350;2023-08-06T05:40:05;2.97;;;2.28;;
41667;SDS011;27356;50.920;5.350;2023-08-06T05:42:31;2.40;;;2.20;;
41667;SDS011;27356;50.920;5.350;2023-08-06T05:44:57;3.10;;;2.25;;
41667;SDS011;27356;50.920;5.350;2023-08-06T05:47:23;5.75;;;1.88;;
41667;SDS011;27356;50.920;5.350;2023-08-06T05:49:48;3.50;;;1.80;;
41667;SDS011;27356;50.920;5.350;2023-08-06T05:52:14;3.13;;;1.90;;
41667;SDS011;27356;50.920;5.350;2023-08-06T05:54:39;1.27;;;1.17;;
41667;SDS011;27356;50.920;5.350;2023-08-06T05:57:05;1.20;;;1.10;;
41667;SDS011;27356;50.920;5.350;2023-08-06T05:59:31;0.93;;;0.93;;
41667;SDS011;27356;50.920;5.350;2023-08-06T06:01:57;2.05;;;1.20;;
41667;SDS011;27356;50.920;5.350;2023-08-06T06:04:23;3.03;;;1.05;;
41667;SDS011;27356;50.920;5.350;2023-08-06T06:06:49;2.85;;;1.10;;
41667;SDS011;27356;50.920;5.350;2023-08-06T06:09:15;1.48;;;1.38;;
41667;SDS011;27356;50.920;5.350;2023-08-06T06:11:41;4.35;;;2.15;;
41667;SDS011;27356;50.920;5.350;2023-08-06T06:14:06;3.88;;;1.58;;
41667;SDS011;27356;50.920;5.350;2023-08-06T06:16:33;3.20;;;2.10;;
41667;SDS011;27356;50.920;5.350;2023-08-06T06:18:59;3.20;;;2.30;;
41667;SDS011;27356;50.920;5.350;2023-08-06T06:21:25;4.15;;;2.40;;
41667;SDS011;27356;50.920;5.350;2023-08-06T06:23:50;2.50;;;1.85;;
41667;SDS011;27356;50.920;5.350;2023-08-06T06:26:17;1.70;;;1.60;;
41667;SDS011;27356;50.920;5.350;2023-08-06T06:28:43;4.72;;;1.00;;
41667;SDS011;27356;50.920;5.350;2023-08-06T06:31:09;1.77;;;1.67;;
41667;SDS011;27356;50.920;5.350;2023-08-06T06:33:34;1.33;;;0.90;;
41667;SDS011;27356;50.920;5.350;2023-08-06T06:36:00;1.17;;;1.08;;
41667;SDS011;27356;50.920;5.350;2023-08-06T06:38:28;1.45;;;1.10;;
41667;SDS011;27356;50.920;5.350;2023-08-06T06:40:54;2.15;;;1.27;;
41667;SDS011;27356;50.920;5.350;2023-08-06T06:43:21;2.78;;;1.83;;
41667;SDS011;27356;50.920;5.350;2023-08-06T06:45:47;4.35;;;1.67;;
41667;SDS011;27356;50.920;5.350;2023-08-06T06:48:27;4.43;;;2.20;;
41667;SDS011;27356;50.920;5.350;2023-08-06T06:50:54;2.17;;;1.98;;
41667;SDS011;27356;50.920;5.350;2023-08-06T06:53:21;5.45;;;2.72;;
41667;SDS011;27356;50.920;5.350;2023-08-06T06:55:52;4.13;;;2.33;;
41667;SDS011;27356;50.920;5.350;2023-08-06T06:58:27;4.38;;;3.13;;
41667;SDS011;27356;50.920;5.350;2023-08-06T07:00:53;3.83;;;3.25;;
41667;SDS011;27356;50.920;5.350;2023-08-06T07:03:22;3.35;;;3.05;;
41667;SDS011;27356;50.920;5.350;2023-08-06T07:05:48;3.63;;;3.05;;
41667;SDS011;27356;50.920;5.350;2023-08-06T07:08:15;4.43;;;3.10;;
41667;SDS011;27356;50.920;5.350;2023-08-06T07:10:41;4.47;;;3.35;;
41667;SDS011;27356;50.920;5.350;2023-08-06T07:13:08;5.88;;;3.10;;
41667;SDS011;27356;50.920;5.350;2023-08-06T07:15:34;5.07;;;3.15;;
41667;SDS011;27356;50.920;5.350;2023-08-06T07:17:59;3.50;;;3.08;;
41667;SDS011;27356;50.920;5.350;2023-08-06T07:20:26;6.65;;;3.42;;
41667;SDS011;27356;50.920;5.350;2023-08-06T07:22:54;4.65;;;2.50;;
41667;SDS011;27356;50.920;5.350;2023-08-06T07:25:19;6.45;;;2.33;;
41667;SDS011;27356;50.920;5.350;2023-08-06T07:27:45;4.00;;;2.03;;
41667;SDS011;27356;50.920;5.350;2023-08-06T07:30:14;2.63;;;1.88;;
41667;SDS011;27356;50.920;5.350;2023-08-06T07:32:40;4.35;;;2.10;;
41667;SDS011;27356;50.920;5.350;2023-08-06T07:35:05;1.58;;;1.48;;
41667;SDS011;27356;50.920;5.350;2023-08-06T07:37:33;2.78;;;1.50;;
41667;SDS011;27356;50.920;5.350;2023-08-06T07:39:58;3.55;;;2.03;;
41667;SDS011;27356;50.920;5.350;2023-08-06T07:42:24;2.95;;;1.25;;
41667;SDS011;27356;50.920;5.350;2023-08-06T07:44:57;4.07;;;1.63;;
41667;SDS011;27356;50.920;5.350;2023-08-06T07:47:24;2.47;;;1.35;;
41667;SDS011;27356;50.920;5.350;2023-08-06T07:49:50;4.65;;;1.58;;
41667;SDS011;27356;50.920;5.350;2023-08-06T07:52:15;3.38;;;1.77;;
41667;SDS011;27356;50.920;5.350;2023-08-06T07:54:41;4.18;;;2.15;;
41667;SDS011;27356;50.920;5.350;2023-08-06T07:57:07;6.32;;;1.77;;
41667;SDS011;27356;50.920;5.350;2023-08-06T07:59:33;4.40;;;1.88;;
41667;SDS011;27356;50.920;5.350;2023-08-06T08:01:58;6.93;;;2.03;;
41667;SDS011;27356;50.920;5.350;2023-08-06T08:04:25;4.68;;;1.90;;
41667;SDS011;27356;50.920;5.350;2023-08-06T08:06:50;7.78;;;2.20;;
41667;SDS011;27356;50.920;5.350;2023-08-06T08:09:16;6.03;;;2.03;;
41667;SDS011;27356;50.920;5.350;2023-08-06T08:11:42;3.70;;;1.73;;
41667;SDS011;27356;50.920;5.350;2023-08-06T08:14:08;5.78;;;2.00;;
41667;SDS011;27356;50.920;5.350;2023-08-06T08:16:33;3.65;;;1.73;;
41667;SDS011;27356;50.920;5.350;2023-08-06T08:18:59;7.80;;;2.15;;
41667;SDS011;27356;50.920;5.350;2023-08-06T08:21:25;3.38;;;1.75;;
41667;SDS011;27356;50.920;5.350;2023-08-06T08:23:50;4.35;;;1.67;;
41667;SDS011;27356;50.920;5.350;2023-08-06T08:26:17;6.05;;;1.92;;
41667;SDS011;27356;50.920;5.350;2023-08-06T08:28:42;4.90;;;1.65;;
41667;SDS011;27356;50.920;5.350;2023-08-06T08:31:09;3.30;;;1.50;;
41667;SDS011;27356;50.920;5.350;2023-08-06T08:33:36;5.05;;;1.77;;
41667;SDS011;27356;50.920;5.350;2023-08-06T08:36:04;3.55;;;1.33;;
41667;SDS011;27356;50.920;5.350;2023-08-06T08:38:30;6.35;;;1.75;;
41667;SDS011;27356;50.920;5.350;2023-08-06T08:40:55;4.60;;;1.48;;
41667;SDS011;27356;50.920;5.350;2023-08-06T08:43:21;5.82;;;1.65;;
41667;SDS011;27356;50.920;5.350;2023-08-06T08:45:49;4.60;;;1.70;;
41667;SDS011;27356;50.920;5.350;2023-08-06T08:48:16;6.50;;;1.50;;
41667;SDS011;27356;50.920;5.350;2023-08-06T08:50:44;4.00;;;2.13;;
41667;SDS011;27356;50.920;5.350;2023-08-06T08:53:11;5.50;;;1.60;;
41667;SDS011;27356;50.920;5.350;2023-08-06T08:55:39;5.18;;;2.20;;
41667;SDS011;27356;50.920;5.350;2023-08-06T08:58:05;4.80;;;1.25;;
41667;SDS011;27356;50.920;5.350;2023-08-06T09:00:33;7.63;;;1.40;;
41667;SDS011;27356;50.920;5.350;2023-08-06T09:03:00;8.77;;;1.25;;
41667;SDS011;27356;50.920;5.350;2023-08-06T09:05:28;7.32;;;1.40;;
41667;SDS011;27356;50.920;5.350;2023-08-06T09:07:56;6.55;;;1.40;;
41667;SDS011;27356;50.920;5.350;2023-08-06T09:10:28;8.60;;;1.70;;
41667;SDS011;27356;50.920;5.350;2023-08-06T09:12:55;3.83;;;1.20;;
41667;SDS011;27356;50.920;5.350;2023-08-06T09:15:25;6.22;;;1.15;;
41667;SDS011;27356;50.920;5.350;2023-08-06T09:17:52;3.60;;;1.02;;
41667;SDS011;27356;50.920;5.350;2023-08-06T09:20:19;5.72;;;0.90;;
41667;SDS011;27356;50.920;5.350;2023-08-06T09:22:44;4.57;;;1.05;;
41667;SDS011;27356;50.920;5.350;2023-08-06T09:25:12;7.03;;;1.02;;
41667;SDS011;27356;50.920;5.350;2023-08-06T09:27:46;11.00;;;1.10;;
41667;SDS011;27356;50.920;5.350;2023-08-06T09:30:12;6.55;;;0.80;;
41667;SDS011;27356;50.920;5.350;2023-08-06T09:32:57;8.15;;;1.90;;
41667;SDS011;27356;50.920;5.350;2023-08-06T09:35:23;12.00;;;1.20;;
41667;SDS011;27356;50.920;5.350;2023-08-06T09:37:49;8.35;;;1.67;;
41667;SDS011;27356;50.920;5.350;2023-08-06T09:42:51;9.57;;;1.48;;
41667;SDS011;27356;50.920;5.350;2023-08-06T09:45:17;3.95;;;1.10;;
41667;SDS011;27356;50.920;5.350;2023-08-06T09:47:43;8.63;;;1.10;;
41667;SDS011;27356;50.920;5.350;2023-08-06T09:50:17;5.85;;;0.98;;
41667;SDS011;27356;50.920;5.350;2023-08-06T09:52:43;7.38;;;1.10;;
41667;SDS011;27356;50.920;5.350;2023-08-06T09:55:12;8.38;;;0.90;;
41667;SDS011;27356;50.920;5.350;2023-08-06T09:57:42;2.28;;;0.57;;
41667;SDS011;27356;50.920;5.350;2023-08-06T10:00:11;6.63;;;1.00;;
41667;SDS011;27356;50.920;5.350;2023-08-06T10:02:38;6.88;;;1.42;;
41667;SDS011;27356;50.920;5.350;2023-08-06T10:05:04;5.85;;;1.17;;
41667;SDS011;27356;50.920;5.350;2023-08-06T10:07:31;5.70;;;1.20;;
41667;SDS011;27356;50.920;5.350;2023-08-06T10:09:58;4.63;;;1.00;;
41667;SDS011;27356;50.920;5.350;2023-08-06T10:12:24;3.95;;;0.80;;
41667;SDS011;27356;50.920;5.350;2023-08-06T10:14:55;3.45;;;0.77;;
41667;SDS011;27356;50.920;5.350;2023-08-06T10:17:24;4.50;;;0.60;;
41667;SDS011;27356;50.920;5.350;2023-08-06T10:19:50;3.15;;;0.77;;
41667;SDS011;27356;50.920;5.350;2023-08-06T10:22:19;3.33;;;0.65;;
41667;SDS011;27356;50.920;5.350;2023-08-06T10:24:53;5.90;;;1.52;;
41667;SDS011;27356;50.920;5.350;2023-08-06T10:27:29;4.75;;;1.13;;
41667;SDS011;27356;50.920;5.350;2023-08-06T10:32:57;3.85;;;0.90;;
41667;SDS011;27356;50.920;5.350;2023-08-06T10:35:27;1.83;;;1.13;;
41667;SDS011;27356;50.920;5.350;2023-08-06T10:38:03;6.25;;;2.10;;
41667;SDS011;27356;50.920;5.350;2023-08-06T10:40:40;1.70;;;1.00;;
41667;SDS011;27356;50.920;5.350;2023-08-06T10:43:26;3.08;;;0.75;;
41667;SDS011;27356;50.920;5.350;2023-08-06T10:45:53;9.35;;;0.93;;
41667;SDS011;27356;50.920;5.350;2023-08-06T10:48:40;5.95;;;0.93;;
41667;SDS011;27356;50.920;5.350;2023-08-06T10:51:07;2.60;;;0.95;;
41667;SDS011;27356;50.920;5.350;2023-08-06T10:53:34;5.85;;;0.70;;
41667;SDS011;27356;50.920;5.350;2023-08-06T10:56:00;5.90;;;0.80;;
41667;SDS011;27356;50.920;5.350;2023-08-06T10:58:33;4.07;;;0.63;;
41667;SDS011;27356;50.920;5.350;2023-08-06T11:00:59;3.13;;;0.60;;
41667;SDS011;27356;50.920;5.350;2023-08-06T11:03:26;2.05;;;0.85;;
41667;SDS011;27356;50.920;5.350;2023-08-06T11:05:52;3.95;;;0.82;;
41667;SDS011;27356;50.920;5.350;2023-08-06T11:08:27;3.40;;;0.57;;
41667;SDS011;27356;50.920;5.350;2023-08-06T11:10:54;3.47;;;0.52;;
41667;SDS011;27356;50.920;5.350;2023-08-06T11:13:20;4.32;;;0.73;;
41667;SDS011;27356;50.920;5.350;2023-08-06T11:15:46;0.93;;;0.80;;
41667;SDS011;27356;50.920;5.350;2023-08-06T11:18:12;2.67;;;0.70;;
41667;SDS011;27356;50.920;5.350;2023-08-06T11:20:38;4.35;;;0.45;;
41667;SDS011;27356;50.920;5.350;2023-08-06T11:23:05;4.47;;;0.40;;
41667;SDS011;27356;50.920;5.350;2023-08-06T11:25:31;3.10;;;0.47;;
41667;SDS011;27356;50.920;5.350;2023-08-06T11:28:01;2.20;;;0.60;;
41667;SDS011;27356;50.920;5.350;2023-08-06T11:30:26;2.63;;;0.60;;
41667;SDS011;27356;50.920;5.350;2023-08-06T11:32:52;3.30;;;0.32;;
41667;SDS011;27356;50.920;5.350;2023-08-06T11:35:18;3.38;;;0.88;;
41667;SDS011;27356;50.920;5.350;2023-08-06T11:37:45;2.42;;;0.40;;
41667;SDS011;27356;50.920;5.350;2023-08-06T11:40:11;5.13;;;0.75;;
41667;SDS011;27356;50.920;5.350;2023-08-06T11:42:39;6.95;;;0.68;;
41667;SDS011;27356;50.920;5.350;2023-08-06T11:45:05;3.47;;;0.60;;
41667;SDS011;27356;50.920;5.350;2023-08-06T11:47:31;3.92;;;0.40;;
41667;SDS011;27356;50.920;5.350;2023-08-06T11:49:57;4.28;;;1.02;;
41667;SDS011;27356;50.920;5.350;2023-08-06T11:52:23;4.85;;;0.85;;
41667;SDS011;27356;50.920;5.350;2023-08-06T11:55:00;4.03;;;0.73;;
41667;SDS011;27356;50.920;5.350;2023-08-06T11:57:31;4.05;;;0.60;;
41667;SDS011;27356;50.920;5.350;2023-08-06T12:00:04;5.13;;;0.80;;
41667;SDS011;27356;50.920;5.350;2023-08-06T12:02:31;5.28;;;0.50;;
41667;SDS011;27356;50.920;5.350;2023-08-06T12:07:47;1.40;;;0.20;;
41667;SDS011;27356;50.920;5.350;2023-08-06T12:10:14;2.78;;;1.15;;
41667;SDS011;27356;50.920;5.350;2023-08-06T12:12:41;1.80;;;0.20;;
41667;SDS011;27356;50.920;5.350;2023-08-06T12:15:08;3.10;;;0.50;;
41667;SDS011;27356;50.920;5.350;2023-08-06T12:17:35;2.08;;;0.30;;
41667;SDS011;27356;50.920;5.350;2023-08-06T12:20:02;2.47;;;0.40;;
41667;SDS011;27356;50.920;5.350;2023-08-06T12:22:29;3.53;;;0.63;;
41667;SDS011;27356;50.920;5.350;2023-08-06T12:24:59;2.67;;;0.50;;
41667;SDS011;27356;50.920;5.350;2023-08-06T12:27:26;4.22;;;0.50;;
41667;SDS011;27356;50.920;5.350;2023-08-06T12:29:52;4.93;;;0.60;;
41667;SDS011;27356;50.920;5.350;2023-08-06T12:32:17;2.10;;;0.75;;
41667;SDS011;27356;50.920;5.350;2023-08-06T12:34:47;4.95;;;0.50;;
41667;SDS011;27356;50.920;5.350;2023-08-06T12:37:16;1.90;;;0.43;;
41667;SDS011;27356;50.920;5.350;2023-08-06T12:39:42;5.05;;;0.52;;
41667;SDS011;27356;50.920;5.350;2023-08-06T12:42:07;5.40;;;0.77;;
41667;SDS011;27356;50.920;5.350;2023-08-06T12:44:33;3.38;;;0.65;;
41667;SDS011;27356;50.920;5.350;2023-08-06T12:46:59;4.53;;;0.70;;
41667;SDS011;27356;50.920;5.350;2023-08-06T12:49:25;3.70;;;0.63;;
41667;SDS011;27356;50.920;5.350;2023-08-06T12:51:51;1.88;;;0.50;;
41667;SDS011;27356;50.920;5.350;2023-08-06T12:54:18;4.07;;;0.80;;
41667;SDS011;27356;50.920;5.350;2023-08-06T12:56:46;3.72;;;1.00;;
41667;SDS011;27356;50.920;5.350;2023-08-06T12:59:13;2.22;;;0.50;;
41667;SDS011;27356;50.920;5.350;2023-08-06T13:01:40;1.15;;;0.40;;
41667;SDS011;27356;50.920;5.350;2023-08-06T13:04:06;2.92;;;0.57;;
41667;SDS011;27356;50.920;5.350;2023-08-06T13:06:31;3.92;;;0.70;;
41667;SDS011;27356;50.920;5.350;2023-08-06T13:09:02;5.10;;;0.93;;
41667;SDS011;27356;50.920;5.350;2023-08-06T13:11:34;1.75;;;0.40;;
41667;SDS011;27356;50.920;5.350;2023-08-06T13:14:05;5.22;;;0.60;;
41667;SDS011;27356;50.920;5.350;2023-08-06T13:16:31;1.73;;;0.47;;
41667;SDS011;27356;50.920;5.350;2023-08-06T13:18:58;3.22;;;0.77;;
41667;SDS011;27356;50.920;5.350;2023-08-06T13:21:32;1.50;;;0.57;;
41667;SDS011;27356;50.920;5.350;2023-08-06T13:24:00;2.00;;;0.65;;
41667;SDS011;27356;50.920;5.350;2023-08-06T13:26:27;1.27;;;0.70;;
41667;SDS011;27356;50.920;5.350;2023-08-06T13:28:57;0.95;;;0.45;;
41667;SDS011;27356;50.920;5.350;2023-08-06T13:31:23;4.25;;;0.82;;
41667;SDS011;27356;50.920;5.350;2023-08-06T13:33:49;2.78;;;0.50;;
41667;SDS011;27356;50.920;5.350;2023-08-06T13:36:15;1.15;;;0.50;;
41667;SDS011;27356;50.920;5.350;2023-08-06T13:38:41;1.40;;;0.52;;
41667;SDS011;27356;50.920;5.350;2023-08-06T13:41:07;1.23;;;0.70;;
41667;SDS011;27356;50.920;5.350;2023-08-06T13:43:33;2.42;;;0.52;;
41667;SDS011;27356;50.920;5.350;2023-08-06T13:45:58;2.72;;;0.60;;
41667;SDS011;27356;50.920;5.350;2023-08-06T13:48:24;2.40;;;1.33;;
41667;SDS011;27356;50.920;5.350;2023-08-06T13:50:50;1.90;;;0.80;;
41667;SDS011;27356;50.920;5.350;2023-08-06T13:53:15;3.88;;;0.63;;
41667;SDS011;27356;50.920;5.350;2023-08-06T13:55:41;7.00;;;1.08;;
41667;SDS011;27356;50.920;5.350;2023-08-06T13:58:07;6.38;;;1.20;;
41667;SDS011;27356;50.920;5.350;2023-08-06T14:00:33;3.08;;;0.90;;
41667;SDS011;27356;50.920;5.350;2023-08-06T14:03:00;4.15;;;0.90;;
41667;SDS011;27356;50.920;5.350;2023-08-06T14:05:26;5.07;;;0.80;;
41667;SDS011;27356;50.920;5.350;2023-08-06T14:07:52;2.97;;;0.60;;
41667;SDS011;27356;50.920;5.350;2023-08-06T14:10:17;3.42;;;0.70;;
41667;SDS011;27356;50.920;5.350;2023-08-06T14:12:43;2.67;;;0.38;;
41667;SDS011;27356;50.920;5.350;2023-08-06T14:15:09;2.58;;;0.60;;
41667;SDS011;27356;50.920;5.350;2023-08-06T14:17:36;2.75;;;0.50;;
41667;SDS011;27356;50.920;5.350;2023-08-06T14:20:01;2.55;;;0.82;;
41667;SDS011;27356;50.920;5.350;2023-08-06T14:22:29;2.20;;;0.20;;
41667;SDS011;27356;50.920;5.350;2023-08-06T14:24:58;0.93;;;0.30;;
41667;SDS011;27356;50.920;5.350;2023-08-06T14:27:24;1.63;;;0.30;;
41667;SDS011;27356;50.920;5.350;2023-08-06T14:29:50;5.70;;;0.40;;
41667;SDS011;27356;50.920;5.350;2023-08-06T14:32:15;2.08;;;0.35;;
41667;SDS011;27356;50.920;5.350;2023-08-06T14:34:43;2.53;;;0.73;;
41667;SDS011;27356;50.920;5.350;2023-08-06T14:37:09;1.67;;;0.50;;
41667;SDS011;27356;50.920;5.350;2023-08-06T14:39:35;1.95;;;0.50;;
41667;SDS011;27356;50.920;5.350;2023-08-06T14:42:01;1.40;;;0.30;;
41667;SDS011;27356;50.920;5.350;2023-08-06T14:44:27;2.83;;;0.20;;
41667;SDS011;27356;50.920;5.350;2023-08-06T14:46:52;1.75;;;0.22;;
41667;SDS011;27356;50.920;5.350;2023-08-06T14:49:18;0.70;;;0.10;;
41667;SDS011;27356;50.920;5.350;2023-08-06T14:51:44;0.68;;;0.30;;
41667;SDS011;27356;50.920;5.350;2023-08-06T14:54:09;0.22;;;0.10;;
41667;SDS011;27356;50.920;5.350;2023-08-06T14:56:35;2.03;;;0.25;;
41667;SDS011;27356;50.920;5.350;2023-08-06T14:59:01;1.30;;;0.30;;
41667;SDS011;27356;50.920;5.350;2023-08-06T15:01:26;0.73;;;0.30;;
41667;SDS011;27356;50.920;5.350;2023-08-06T15:03:52;5.18;;;0.35;;